createdAt,value
2018-04-13T00:01:29.581Z,99231.22
2018-04-13T00:03:57.110Z,99231.79
2018-04-13T00:06:24.636Z,99229.27
2018-04-13T00:08:52.208Z,99231.70
2018-04-13T00:11:19.790Z,99228.89
2018-04-13T00:13:47.371Z,99229.20
2018-04-13T00:16:14.948Z,99231.30
2018-04-13T00:18:42.537Z,99228.63
2018-04-13T00:21:10.119Z,99233.68
2018-04-13T00:23:37.666Z,99230.78
2018-04-13T00:26:05.364Z,99230.95
2018-04-13T00:28:32.896Z,99235.14
2018-04-13T00:31:00.438Z,99242.83
2018-04-13T00:33:28.032Z,99256.66
2018-04-13T00:35:55.562Z,99258.58
2018-04-13T00:38:24.033Z,99265.75
2018-04-13T00:40:51.626Z,99263.23
2018-04-13T00:43:19.200Z,99258.92
2018-04-13T00:45:46.828Z,99259.19
2018-04-13T00:48:14.363Z,99262.39
2018-04-13T00:50:41.954Z,99263.38
2018-04-13T00:53:21.324Z,99262.39
2018-04-13T00:55:48.925Z,99262.81
2018-04-13T00:58:17.482Z,99266.30
2018-04-13T01:00:45.022Z,99267.05
2018-04-13T01:03:12.854Z,99263.77
2018-04-13T01:05:40.828Z,99263.17
2018-04-13T01:08:08.406Z,99265.10
2018-04-13T01:10:36.492Z,99258.77
2018-04-13T01:13:05.010Z,99269.58
2018-04-13T01:15:32.620Z,99274.40
2018-04-13T01:18:00.416Z,99260.20
2018-04-13T01:20:27.953Z,99267.61
2018-04-13T01:22:55.489Z,99261.41
2018-04-13T01:25:23.091Z,99265.80
2018-04-13T01:27:51.050Z,99267.25
2018-04-13T01:30:18.577Z,99268.19
2018-04-13T01:32:46.104Z,99278.38
2018-04-13T01:35:13.680Z,99275.84
2018-04-13T01:37:41.252Z,99271.93
2018-04-13T01:40:09.225Z,99272.36
2018-04-13T01:42:37.120Z,99275.52
2018-04-13T01:45:04.882Z,99278.23
2018-04-13T01:47:32.436Z,99274.41
2018-04-13T01:50:00.288Z,99271.94
2018-04-13T01:52:27.895Z,99269.72
2018-04-13T01:54:55.501Z,99263.15
2018-04-13T01:57:23.046Z,99265.05
2018-04-13T01:59:50.865Z,99260.30
2018-04-13T02:02:18.426Z,99256.83
2018-04-13T02:04:45.969Z,99263.52
2018-04-13T02:07:13.641Z,99265.96
2018-04-13T02:09:41.173Z,99264.30
2018-04-13T02:12:08.768Z,99264.48
2018-04-13T02:14:36.826Z,99271.12
2018-04-13T02:17:04.590Z,99285.18
2018-04-13T02:19:32.129Z,99291.17
2018-04-13T02:21:59.709Z,99300.80
2018-04-13T02:24:29.236Z,99309.88
2018-04-13T02:26:57.052Z,99298.55
2018-04-13T02:29:24.602Z,99283.38
2018-04-13T02:31:52.185Z,99275.10
2018-04-13T02:34:19.973Z,99279.15
2018-04-13T02:36:47.445Z,99290.78
2018-04-13T02:39:15.457Z,99295.18
2018-04-13T02:41:42.996Z,99284.10
2018-04-13T02:44:10.545Z,99283.63
2018-04-13T02:46:38.138Z,99282.13
2018-04-13T02:49:06.722Z,99291.66
2018-04-13T02:51:35.412Z,99295.06
2018-04-13T02:54:02.960Z,99293.30
2018-04-13T02:56:30.556Z,99294.22
2018-04-13T02:58:58.657Z,99294.45
2018-04-13T03:01:26.188Z,99287.92
2018-04-13T03:03:53.771Z,99292.98
2018-04-13T03:06:21.314Z,99303.73
2018-04-13T03:08:48.912Z,99308.17
2018-04-13T03:11:16.453Z,99312.08
2018-04-13T03:13:44.061Z,99316.89
2018-04-13T03:16:11.637Z,99320.01
2018-04-13T03:18:39.178Z,99312.03
2018-04-13T03:21:06.763Z,99299.14
2018-04-13T03:23:34.345Z,99306.54
2018-04-13T03:26:01.878Z,99313.38
2018-04-13T03:28:29.420Z,99318.09
2018-04-13T03:30:56.965Z,99323.80
2018-04-13T03:33:24.670Z,99324.77
2018-04-13T03:35:52.270Z,99334.31
2018-04-13T03:38:19.849Z,99337.63
2018-04-13T03:40:47.388Z,99340.38
2018-04-13T03:43:15.128Z,99341.69
2018-04-13T03:45:42.935Z,99348.38
2018-04-13T03:48:11.625Z,99356.05
2018-04-13T03:50:39.390Z,99372.49
2018-04-13T03:53:06.933Z,99368.06
2018-04-13T03:55:34.825Z,99367.58
2018-04-13T03:58:02.813Z,99370.94
2018-04-13T04:00:30.413Z,99375.13
2018-04-13T04:02:57.955Z,99383.36
2018-04-13T04:05:25.537Z,99396.63
2018-04-13T04:07:53.398Z,99399.98
2018-04-13T04:10:21.642Z,99400.94
2018-04-13T04:12:49.176Z,99399.64
2018-04-13T04:15:16.750Z,99393.53
2018-04-13T04:17:44.294Z,99387.19
2018-04-13T04:20:24.853Z,99384.30
2018-04-13T04:23:04.720Z,99386.42
2018-04-13T04:25:51.508Z,99377.78
2018-04-13T04:28:19.419Z,99370.14
2018-04-13T04:30:47.917Z,99381.63
2018-04-13T04:33:15.470Z,99381.86
2018-04-13T04:35:43.633Z,99373.91
2018-04-13T04:38:11.394Z,99381.06
2018-04-13T04:40:38.932Z,99394.28
2018-04-13T04:43:06.669Z,99398.96
2018-04-13T04:45:34.259Z,99398.23
2018-04-13T04:48:01.812Z,99407.97
2018-04-13T04:50:29.396Z,99423.34
2018-04-13T04:52:56.953Z,99434.13
2018-04-13T04:55:24.546Z,99441.41
2018-04-13T04:57:52.438Z,99429.96
2018-04-13T05:00:20.505Z,99429.84
2018-04-13T05:02:48.068Z,99427.63
2018-04-13T05:05:15.673Z,99434.84
2018-04-13T05:07:44.075Z,99424.00
2018-04-13T05:10:12.648Z,99425.88
2018-04-13T05:12:40.228Z,99437.70
2018-04-13T05:15:07.962Z,99447.43
2018-04-13T05:17:35.541Z,99444.98
2018-04-13T05:20:03.081Z,99444.70
2018-04-13T05:22:30.684Z,99461.98
2018-04-13T05:24:58.302Z,99460.11
2018-04-13T05:27:26.382Z,99459.36
2018-04-13T05:29:54.451Z,99447.41
2018-04-13T05:32:22.566Z,99451.72
2018-04-13T05:34:51.222Z,99456.86
2018-04-13T05:37:18.765Z,99450.86
2018-04-13T05:39:46.831Z,99448.44
2018-04-13T05:42:14.364Z,99461.00
2018-04-13T05:44:42.260Z,99460.61
2018-04-13T05:47:11.430Z,99456.48
2018-04-13T05:49:39.022Z,99452.97
2018-04-13T05:52:06.780Z,99456.72
2018-04-13T05:54:34.336Z,99454.65
2018-04-13T05:57:02.006Z,99448.12
2018-04-13T05:59:29.743Z,99446.50
2018-04-13T06:01:57.351Z,99456.81
2018-04-13T06:04:24.889Z,99451.73
2018-04-13T06:06:53.301Z,99453.08
2018-04-13T06:09:22.565Z,99452.73
2018-04-13T06:11:51.086Z,99450.41
2018-04-13T06:14:18.633Z,99456.62
2018-04-13T06:16:46.261Z,99468.31
2018-04-13T06:19:13.810Z,99469.94
2018-04-13T06:21:41.416Z,99467.62
2018-04-13T06:24:08.954Z,99465.41
2018-04-13T06:26:36.510Z,99469.97
2018-04-13T06:29:04.104Z,99466.43
2018-04-13T06:31:31.648Z,99470.06
2018-04-13T06:33:59.403Z,99470.77
2018-04-13T06:36:26.980Z,99471.89
2018-04-13T06:38:54.565Z,99473.41
2018-04-13T06:41:22.121Z,99476.06
2018-04-13T06:43:50.546Z,99483.03
2018-04-13T06:46:18.121Z,99483.61
2018-04-13T06:48:45.783Z,99476.63
2018-04-13T06:51:13.312Z,99486.06
2018-04-13T06:53:40.930Z,99493.64
2018-04-13T06:56:08.468Z,99497.98
2018-04-13T06:58:36.071Z,99495.36
2018-04-13T07:01:03.726Z,99497.30
2018-04-13T07:03:31.260Z,99492.95
2018-04-13T07:05:58.800Z,99491.49
2018-04-13T07:08:26.381Z,99497.16
2018-04-13T07:10:53.964Z,99499.38
2018-04-13T07:13:21.560Z,99492.28
2018-04-13T07:15:49.188Z,99490.95
2018-04-13T07:18:16.729Z,99494.02
2018-04-13T07:20:45.271Z,99497.04
2018-04-13T07:23:12.950Z,99496.95
2018-04-13T07:25:40.558Z,99501.24
2018-04-13T07:28:08.169Z,99497.98
2018-04-13T07:30:35.713Z,99500.77
2018-04-13T07:33:03.331Z,99501.20
2018-04-13T07:35:30.941Z,99509.60
2018-04-13T07:37:58.924Z,99507.72
2018-04-13T07:40:26.098Z,99504.28
2018-04-13T07:42:54.619Z,99496.15
2018-04-13T07:45:22.214Z,99501.78
2018-04-13T07:47:49.799Z,99504.28
2018-04-13T07:50:17.949Z,99507.47
2018-04-13T07:52:46.369Z,99510.38
2018-04-13T07:55:13.941Z,99504.88
2018-04-13T07:57:41.480Z,99507.23
2018-04-13T08:00:09.334Z,99504.19
2018-04-13T08:02:36.889Z,99501.66
2018-04-13T08:05:04.537Z,99504.08
2018-04-13T08:07:32.173Z,99505.84
2018-04-13T08:09:59.864Z,99499.50
2018-04-13T08:12:27.325Z,99497.23
2018-04-13T08:14:54.985Z,99502.21
2018-04-13T08:17:22.530Z,99505.23
2018-04-13T08:19:50.078Z,99500.80
2018-04-13T08:22:17.677Z,99506.56
2018-04-13T08:24:45.210Z,99504.57
2018-04-13T08:27:12.766Z,99501.65
2018-04-13T08:29:40.396Z,99499.19
2018-04-13T08:32:08.325Z,99494.23
2018-04-13T08:34:36.215Z,99489.33
2018-04-13T08:37:03.822Z,99489.76
2018-04-13T08:39:31.524Z,99486.16
2018-04-13T08:41:59.060Z,99489.98
2018-04-13T08:44:26.622Z,99486.88
2018-04-13T08:46:54.383Z,99478.66
2018-04-13T08:49:22.017Z,99474.17
2018-04-13T08:51:49.640Z,99468.22
2018-04-13T08:56:44.233Z,99478.48
2018-04-13T08:59:11.876Z,99483.33
2018-04-13T09:01:39.470Z,99479.08
2018-04-13T09:04:09.381Z,99478.58
2018-04-13T09:06:36.942Z,99477.61
2018-04-13T09:09:04.656Z,99487.08
2018-04-13T09:11:32.197Z,99485.88
2018-04-13T09:13:59.738Z,99483.31
2018-04-13T09:16:27.377Z,99476.83
2018-04-13T09:18:54.920Z,99475.08
2018-04-13T09:21:22.466Z,99473.50
2018-04-13T09:23:50.138Z,99468.45
2018-04-13T09:26:17.742Z,99462.55
2018-04-13T09:28:45.303Z,99458.98
2018-04-13T09:31:12.941Z,99459.58
2018-04-13T09:33:41.517Z,99458.41
2018-04-13T09:36:09.924Z,99448.09
2018-04-13T09:38:37.753Z,99452.31
2018-04-13T09:41:05.307Z,99458.30
2018-04-13T09:43:32.865Z,99455.34
2018-04-13T09:46:01.309Z,99453.70
2018-04-13T09:48:30.335Z,99450.16
2018-04-13T09:50:57.976Z,99454.96
2018-04-13T09:53:25.523Z,99455.39
2018-04-13T09:55:53.060Z,99454.81
2018-04-13T09:58:20.710Z,99457.05
2018-04-13T10:00:48.542Z,99446.36
2018-04-13T10:03:20.973Z,99460.36
2018-04-13T10:05:48.561Z,99453.11
2018-04-13T10:08:16.116Z,99452.52
2018-04-13T10:10:43.717Z,99450.39
2018-04-13T10:13:11.328Z,99452.83
2018-04-13T10:15:38.922Z,99450.23
2018-04-13T10:18:06.574Z,99443.80
2018-04-13T10:20:34.167Z,99442.80
2018-04-13T10:23:01.723Z,99440.62
2018-04-13T10:25:29.321Z,99440.53
2018-04-13T10:27:56.877Z,99440.08
2018-04-13T10:30:24.591Z,99442.05
2018-04-13T10:32:52.224Z,99441.67
2018-04-13T10:35:19.788Z,99447.39
2018-04-13T10:37:47.449Z,99438.16
2018-04-13T10:40:15.936Z,99440.95
2018-04-13T10:42:43.623Z,99432.98
2018-04-13T10:45:12.116Z,99431.31
2018-04-13T10:47:39.671Z,99432.83
2018-04-13T10:50:07.284Z,99423.48
2018-04-13T10:52:34.833Z,99426.30
2018-04-13T10:55:02.416Z,99429.64
2018-04-13T10:57:30.008Z,99425.04
2018-04-13T10:59:57.557Z,99423.47
2018-04-13T11:02:25.169Z,99423.46
2018-04-13T11:04:52.766Z,99424.64
2018-04-13T11:07:20.318Z,99420.53
2018-04-13T11:09:47.989Z,99419.80
2018-04-13T11:12:15.542Z,99424.83
2018-04-13T11:14:43.084Z,99416.73
2018-04-13T11:17:10.766Z,99417.91
2018-04-13T11:19:39.424Z,99412.84
2018-04-13T11:22:07.777Z,99414.31
2018-04-13T11:24:35.626Z,99408.48
2018-04-13T11:27:03.178Z,99409.89
2018-04-13T11:29:30.821Z,99402.73
2018-04-13T11:31:58.434Z,99407.64
2018-04-13T11:34:26.055Z,99399.22
2018-04-13T11:36:53.610Z,99402.34
2018-04-13T11:39:21.214Z,99400.81
2018-04-13T11:41:48.786Z,99394.33
2018-04-13T11:44:16.390Z,99397.00
2018-04-13T11:46:43.932Z,99395.74
2018-04-13T11:49:11.494Z,99394.83
2018-04-13T11:51:39.053Z,99388.04
2018-04-13T11:54:06.593Z,99388.72
2018-04-13T11:56:35.104Z,99387.23
2018-04-13T11:59:02.757Z,99383.66
2018-04-13T12:01:30.336Z,99380.22
2018-04-13T12:03:57.974Z,99378.59
2018-04-13T12:06:25.920Z,99376.08
2018-04-13T12:08:53.469Z,99375.97
2018-04-13T12:11:21.092Z,99380.08
2018-04-13T12:13:48.694Z,99380.65
2018-04-13T12:16:16.283Z,99374.56
2018-04-13T12:18:43.945Z,99379.55
2018-04-13T12:21:12.411Z,99374.81
2018-04-13T12:23:40.011Z,99367.73
2018-04-13T12:26:07.597Z,99369.11
2018-04-13T12:28:35.149Z,99371.31
2018-04-13T12:31:02.740Z,99368.80
2018-04-13T12:33:30.294Z,99369.37
2018-04-13T12:35:58.047Z,99359.73
2018-04-13T12:38:25.771Z,99361.48
2018-04-13T12:40:53.330Z,99365.30
2018-04-13T12:43:20.982Z,99360.08
2018-04-13T12:45:49.362Z,99357.83
2018-04-13T12:48:17.756Z,99356.57
2018-04-13T12:50:46.639Z,99353.63
2018-04-13T12:53:14.413Z,99350.32
2018-04-13T12:55:42.281Z,99351.66
2018-04-13T12:58:10.888Z,99341.62
2018-04-13T13:00:39.665Z,99341.91
2018-04-13T13:03:08.119Z,99345.07
2018-04-13T13:05:35.672Z,99339.05
2018-04-13T13:08:03.257Z,99338.63
2018-04-13T13:10:30.944Z,99340.30
2018-04-13T13:12:58.614Z,99337.72
2018-04-13T13:15:27.140Z,99340.13
2018-04-13T13:17:54.801Z,99342.45
2018-04-13T13:20:22.931Z,99350.78
2018-04-13T13:22:50.489Z,99349.98
2018-04-13T13:25:18.089Z,99344.84
2018-04-13T13:27:46.673Z,99343.58
2018-04-13T13:30:18.058Z,99340.19
2018-04-13T13:32:45.692Z,99337.52
2018-04-13T13:35:13.435Z,99340.64
2018-04-13T13:37:41.870Z,99335.66
2018-04-13T13:40:09.859Z,99335.66
2018-04-13T13:42:38.337Z,99334.32
2018-04-13T13:45:06.430Z,99331.23
2018-04-13T13:47:34.544Z,99336.14
2018-04-13T13:50:04.915Z,99331.77
2018-04-13T13:52:32.606Z,99327.20
2018-04-13T13:55:01.205Z,99325.38
2018-04-13T13:57:28.874Z,99325.30
2018-04-13T13:59:56.567Z,99317.86
2018-04-13T14:02:24.659Z,99319.39
2018-04-13T14:04:52.323Z,99318.13
2018-04-13T14:07:21.258Z,99315.45
2018-04-13T14:09:49.824Z,99317.28
2018-04-13T14:12:17.951Z,99322.66
2018-04-13T14:14:45.732Z,99320.06
2018-04-13T14:17:13.473Z,99317.33
2018-04-13T14:19:41.411Z,99308.56
2018-04-13T14:22:09.215Z,99314.73
2018-04-13T14:24:37.020Z,99317.89
2018-04-13T14:27:04.859Z,99313.09
2018-04-13T14:29:33.851Z,99307.31
2018-04-13T14:32:01.670Z,99306.89
2018-04-13T14:34:29.400Z,99316.18
2018-04-13T14:36:57.232Z,99309.14
2018-04-13T14:39:24.869Z,99316.64
2018-04-13T14:41:52.629Z,99310.05
2018-04-13T14:44:20.504Z,99306.97
2018-04-13T14:46:48.415Z,99308.72
2018-04-13T14:49:16.385Z,99307.38
2018-04-13T14:51:44.858Z,99308.80
2018-04-13T14:54:13.292Z,99305.28
2018-04-13T14:56:41.891Z,99304.03
2018-04-13T14:59:10.378Z,99305.41
2018-04-13T15:01:38.379Z,99308.56
2018-04-13T15:04:06.264Z,99314.81
2018-04-13T15:06:34.148Z,99314.05
2018-04-13T15:09:02.848Z,99315.45
2018-04-13T15:11:30.722Z,99321.73
2018-04-13T15:13:58.534Z,99321.39
2018-04-13T15:16:26.549Z,99321.09
2018-04-13T15:18:55.323Z,99329.16
2018-04-13T15:21:23.883Z,99330.64
2018-04-13T15:23:53.437Z,99325.80
2018-04-13T15:26:20.978Z,99324.16
2018-04-13T15:28:48.957Z,99319.39
2018-04-13T15:31:16.724Z,99326.59
2018-04-13T15:33:44.992Z,99323.02
2018-04-13T15:36:12.538Z,99326.17
2018-04-13T15:38:41.461Z,99334.17
2018-04-13T15:41:09.574Z,99335.51
2018-04-13T15:43:37.162Z,99334.17
2018-04-13T15:46:05.095Z,99335.09
2018-04-13T15:48:32.882Z,99335.16
2018-04-13T15:51:01.387Z,99333.03
2018-04-13T15:53:29.033Z,99334.02
2018-04-13T15:55:57.025Z,99335.84
2018-04-13T15:58:24.630Z,99340.34
2018-04-13T16:00:52.857Z,99340.10
2018-04-13T16:03:21.193Z,99343.34
2018-04-13T16:05:49.366Z,99346.53
2018-04-13T16:08:17.386Z,99352.85
2018-04-13T16:10:45.332Z,99351.17
2018-04-13T16:13:13.622Z,99351.78
2018-04-13T16:15:41.184Z,99352.80
2018-04-13T16:18:09.253Z,99350.35
2018-04-13T16:20:36.862Z,99351.03
2018-04-13T16:23:04.884Z,99349.39
2018-04-13T16:25:32.498Z,99350.86
2018-04-13T16:28:00.042Z,99350.94
2018-04-13T16:30:28.796Z,99358.98
2018-04-13T16:32:56.554Z,99352.11
2018-04-13T16:35:24.393Z,99366.11
2018-04-13T16:37:52.399Z,99362.37
2018-04-13T16:40:19.942Z,99362.63
2018-04-13T16:42:48.382Z,99356.14
2018-04-13T16:45:17.107Z,99365.54
2018-04-13T16:47:45.046Z,99364.53
2018-04-13T16:50:13.042Z,99373.69
2018-04-13T16:52:40.633Z,99370.86
2018-04-13T16:55:08.556Z,99371.30
2018-04-13T16:57:36.355Z,99374.74
2018-04-13T17:00:04.051Z,99370.90
2018-04-13T17:02:31.672Z,99370.87
2018-04-13T17:04:59.431Z,99370.97
2018-04-13T17:07:26.982Z,99370.97
2018-04-13T17:09:55.168Z,99368.87
2018-04-13T17:12:23.748Z,99382.86
2018-04-13T17:14:51.351Z,99381.11
2018-04-13T17:17:18.956Z,99385.00
2018-04-13T17:19:46.831Z,99386.92
2018-04-13T17:22:15.558Z,99394.38
2018-04-13T17:24:43.093Z,99396.90
2018-04-13T17:27:11.063Z,99398.16
2018-04-13T17:29:38.662Z,99400.56
2018-04-13T17:32:06.218Z,99403.48
2018-04-13T17:34:33.812Z,99398.78
2018-04-13T17:37:03.837Z,99398.71
2018-04-13T17:39:32.063Z,99397.48
2018-04-13T17:42:00.106Z,99401.06
2018-04-13T17:44:27.653Z,99409.91
2018-04-13T17:46:55.197Z,99413.09
2018-04-13T17:49:23.633Z,99419.39
2018-04-13T17:51:51.346Z,99421.87
2018-04-13T17:54:19.225Z,99430.37
2018-04-13T17:56:47.690Z,99432.05
2018-04-13T17:59:15.610Z,99434.17
2018-04-13T18:01:43.159Z,99435.48
2018-04-13T18:04:10.968Z,99445.23
2018-04-13T18:06:39.459Z,99448.67
2018-04-13T18:09:08.159Z,99454.49
2018-04-13T18:11:35.698Z,99462.62
2018-04-13T18:14:03.534Z,99462.56
2018-04-13T18:16:31.495Z,99466.19
2018-04-13T18:18:59.928Z,99470.44
2018-04-13T18:21:29.557Z,99466.58
2018-04-13T18:23:57.978Z,99469.14
2018-04-13T18:26:25.565Z,99483.89
2018-04-13T18:28:53.658Z,99481.88
2018-04-13T18:31:21.254Z,99487.09
2018-04-13T18:33:50.081Z,99488.74
2018-04-13T18:36:17.985Z,99492.41
2018-04-13T18:38:45.618Z,99498.06
2018-04-13T18:41:14.453Z,99500.20
2018-04-13T18:43:43.066Z,99503.83
2018-04-13T18:46:11.231Z,99505.14
2018-04-13T18:48:40.867Z,99508.58
2018-04-13T18:51:11.947Z,99513.59
2018-04-13T18:53:39.535Z,99518.55
2018-04-13T18:56:07.093Z,99514.33
2018-04-13T18:58:34.969Z,99516.06
2018-04-13T19:01:03.619Z,99524.15
2018-04-13T19:03:32.724Z,99529.28
2018-04-13T19:06:00.369Z,99534.64
2018-04-13T19:08:30.898Z,99531.86
2018-04-13T19:10:58.446Z,99540.07
2018-04-13T19:13:26.140Z,99540.59
2018-04-13T19:15:56.546Z,99546.34
2018-04-13T19:18:24.649Z,99544.18
2018-04-13T19:20:53.125Z,99541.78
2018-04-13T19:23:21.487Z,99547.86
2018-04-13T19:25:49.344Z,99553.44
2018-04-13T19:28:17.322Z,99555.84
2018-04-13T19:30:44.867Z,99561.05
2018-04-13T19:33:12.461Z,99562.11
2018-04-13T19:35:40.885Z,99563.02
2018-04-13T19:38:08.474Z,99559.57
2018-04-13T19:40:36.136Z,99563.44
2018-04-13T19:43:04.548Z,99559.41
2018-04-13T19:45:33.022Z,99561.50
2018-04-13T19:48:00.972Z,99573.50
2018-04-13T19:50:29.122Z,99574.77
2018-04-13T19:52:56.675Z,99577.91
2018-04-13T19:55:24.287Z,99580.16
2018-04-13T19:57:52.057Z,99584.58
2018-04-13T20:00:19.962Z,99586.28
2018-04-13T20:02:47.532Z,99585.16
2018-04-13T20:05:15.369Z,99588.69
2018-04-13T20:07:43.358Z,99592.74
2018-04-13T20:10:10.914Z,99597.70
2018-04-13T20:12:39.562Z,99601.55
2018-04-13T20:15:07.102Z,99607.41
2018-04-13T20:17:34.650Z,99600.39
2018-04-13T20:20:02.375Z,99593.00
2018-04-13T20:22:30.557Z,99600.34
2018-04-13T20:24:58.694Z,99603.98
2018-04-13T20:27:26.435Z,99607.13
2018-04-13T20:29:54.045Z,99611.26
2018-04-13T20:32:22.121Z,99617.47
2018-04-13T20:34:50.649Z,99618.23
2018-04-13T20:37:18.198Z,99624.17
2018-04-13T20:39:45.918Z,99623.48
2018-04-13T20:42:13.514Z,99624.56
2018-04-13T20:44:41.062Z,99626.27
2018-04-13T20:47:08.605Z,99634.25
2018-04-13T20:49:36.330Z,99642.22
2018-04-13T20:52:04.402Z,99645.80
2018-04-13T20:54:32.021Z,99648.81
2018-04-13T20:57:00.180Z,99656.09
2018-04-13T20:59:28.170Z,99647.28
2018-04-13T21:01:55.724Z,99650.63
2018-04-13T21:04:23.534Z,99648.27
2018-04-13T21:06:51.468Z,99653.31
2018-04-13T21:09:20.008Z,99655.58
2018-04-13T21:11:47.825Z,99660.06
2018-04-13T21:14:15.373Z,99665.39
2018-04-13T21:16:43.431Z,99658.63
2018-04-13T21:19:10.984Z,99666.16
2018-04-13T21:21:38.940Z,99669.86
2018-04-13T21:24:06.531Z,99671.84
2018-04-13T21:26:34.121Z,99672.60
2018-04-13T21:29:01.718Z,99675.98
2018-04-13T21:31:29.702Z,99679.33
2018-04-13T21:33:57.314Z,99675.88
2018-04-13T21:36:24.859Z,99681.31
2018-04-13T21:38:53.000Z,99673.39
2018-04-13T21:41:20.901Z,99669.20
2018-04-13T21:43:48.975Z,99661.06
2018-04-13T21:46:16.923Z,99677.70
2018-04-13T21:48:44.514Z,99671.86
2018-04-13T21:51:12.573Z,99674.45
2018-04-13T21:53:40.367Z,99679.72
2018-04-13T21:56:07.938Z,99679.91
2018-04-13T21:58:35.562Z,99690.86
2018-04-13T22:01:03.323Z,99696.48
2018-04-13T22:03:31.060Z,99701.13
2018-04-13T22:05:58.602Z,99703.83
2018-04-13T22:08:26.614Z,99706.91
2018-04-13T22:10:54.169Z,99707.98
2018-04-13T22:13:35.497Z,99705.52
2018-04-13T22:16:03.312Z,99704.36
2018-04-13T22:18:30.905Z,99702.35
2018-04-13T22:20:58.489Z,99695.07
2018-04-13T22:23:26.038Z,99698.44
2018-04-13T22:25:53.871Z,99699.40
2018-04-13T22:28:21.425Z,99698.17
2018-04-13T22:30:49.157Z,99704.60
2018-04-13T22:33:16.746Z,99705.58
2018-04-13T22:35:44.815Z,99711.86
2018-04-13T22:38:12.706Z,99713.61
2018-04-13T22:40:40.523Z,99718.34
2018-04-13T22:43:08.066Z,99723.97
2018-04-13T22:45:35.667Z,99722.41
2018-04-13T22:48:03.458Z,99722.75
2018-04-13T22:50:31.435Z,99726.05
2018-04-13T22:53:00.198Z,99726.56
2018-04-13T22:55:27.791Z,99722.67
2018-04-13T22:57:55.401Z,99722.36
2018-04-13T23:00:23.209Z,99733.09
2018-04-13T23:02:50.754Z,99735.16
2018-04-13T23:05:18.299Z,99743.66
2018-04-13T23:07:45.897Z,99738.36
2018-04-13T23:10:13.736Z,99740.25
2018-04-13T23:12:41.317Z,99753.30
2018-04-13T23:15:08.858Z,99755.06
2018-04-13T23:17:36.638Z,99766.58
2018-04-13T23:20:04.210Z,99771.14
2018-04-13T23:22:38.001Z,99769.02
2018-04-13T23:25:05.541Z,99766.06
2018-04-13T23:27:33.507Z,99766.55
2018-04-13T23:30:01.221Z,99763.95
2018-04-13T23:32:28.766Z,99766.69
2018-04-13T23:34:56.404Z,99764.69
2018-04-13T23:37:24.509Z,99752.50
2018-04-13T23:39:52.120Z,99762.17
2018-04-13T23:42:20.532Z,99768.33
2018-04-13T23:44:48.078Z,99774.52
2018-04-13T23:47:15.949Z,99777.88
2018-04-13T23:49:43.489Z,99780.66
2018-04-13T23:52:11.035Z,99785.17
2018-04-13T23:54:38.621Z,99782.77
2018-04-13T23:57:06.218Z,99786.19
2018-04-13T23:59:34.303Z,99786.25
